createdAt,value
2018-09-03T00:01:35.301Z,5.40
2018-09-03T00:03:10.750Z,5.40
2018-09-03T00:04:45.905Z,6.00
2018-09-03T00:06:21.566Z,6.00
2018-09-03T00:07:57.053Z,5.60
2018-09-03T00:09:37.221Z,5.80
2018-09-03T00:11:12.702Z,6.40
2018-09-03T00:12:48.898Z,5.00
2018-09-03T00:14:25.399Z,6.40
2018-09-03T00:16:01.260Z,5.20
2018-09-03T00:17:36.843Z,5.40
2018-09-03T00:19:12.240Z,4.80
2018-09-03T00:20:47.659Z,5.40
2018-09-03T00:22:23.111Z,4.00
2018-09-03T00:24:00.168Z,6.00
2018-09-03T00:25:36.428Z,6.00
2018-09-03T00:27:11.730Z,5.80
2018-09-03T00:28:47.332Z,6.00
2018-09-03T00:30:23.223Z,8.00
2018-09-03T00:32:06.684Z,6.40
2018-09-03T00:33:48.261Z,6.00
2018-09-03T00:35:29.221Z,5.20
2018-09-03T00:37:10.701Z,7.60
2018-09-03T00:38:50.778Z,6.00
2018-09-03T00:40:31.333Z,4.60
2018-09-03T00:42:11.543Z,6.00
2018-09-03T00:43:53.233Z,5.20
2018-09-03T00:45:33.276Z,7.20
2018-09-03T00:47:11.109Z,5.00
2018-09-03T00:48:46.489Z,6.00
2018-09-03T00:50:23.350Z,6.40
2018-09-03T00:51:59.038Z,6.00
2018-09-03T00:53:34.478Z,5.40
2018-09-03T00:55:09.687Z,5.40
2018-09-03T00:56:44.897Z,7.60
2018-09-03T00:58:20.230Z,6.00
2018-09-03T00:59:55.817Z,6.00
2018-09-03T01:01:31.197Z,6.00
2018-09-03T01:03:06.493Z,5.40
2018-09-03T01:04:48.687Z,5.80
2018-09-03T01:06:23.926Z,6.40
2018-09-03T01:08:03.609Z,6.00
2018-09-03T01:09:42.677Z,6.00
2018-09-03T01:11:17.957Z,8.00
2018-09-03T01:15:31.965Z,4.80
2018-09-03T01:17:07.342Z,6.80
2018-09-03T01:18:45.937Z,6.80
2018-09-03T01:20:25.309Z,7.20
2018-09-03T01:22:00.563Z,5.60
2018-09-03T01:23:36.042Z,8.20
2018-09-03T01:25:12.315Z,6.00
2018-09-03T01:26:47.673Z,8.00
2018-09-03T01:28:22.958Z,6.00
2018-09-03T01:29:58.898Z,8.20
2018-09-03T01:31:34.056Z,6.80
2018-09-03T01:33:09.401Z,6.40
2018-09-03T01:34:45.577Z,8.40
2018-09-03T01:36:21.013Z,7.80
2018-09-03T01:37:56.406Z,8.00
2018-09-03T01:39:31.609Z,5.80
2018-09-03T01:41:08.246Z,6.00
2018-09-03T01:42:44.414Z,6.00
2018-09-03T01:44:21.580Z,6.00
2018-09-03T01:45:58.700Z,6.00
2018-09-03T01:47:36.913Z,6.40
2018-09-03T01:49:12.245Z,7.20
2018-09-03T01:50:47.443Z,6.00
2018-09-03T01:52:22.674Z,7.20
2018-09-03T01:53:58.375Z,8.00
2018-09-03T01:55:33.985Z,8.20
2018-09-03T01:57:09.212Z,6.40
2018-09-03T01:58:45.087Z,6.40
2018-09-03T02:00:20.292Z,4.20
2018-09-03T02:01:55.853Z,8.00
2018-09-03T02:03:31.198Z,6.80
2018-09-03T02:05:07.194Z,8.00
2018-09-03T02:06:43.631Z,7.00
2018-09-03T02:08:18.681Z,8.00
2018-09-03T02:09:54.638Z,6.00
2018-09-03T02:11:30.245Z,8.20
2018-09-03T02:13:06.040Z,6.80
2018-09-03T02:14:41.472Z,7.60
2018-09-03T02:16:16.727Z,8.00
2018-09-03T02:17:53.849Z,6.00
2018-09-03T02:19:29.219Z,8.00
2018-09-03T02:21:05.141Z,6.40
2018-09-03T02:22:40.110Z,8.40
2018-09-03T02:24:15.705Z,8.40
2018-09-03T02:25:50.871Z,6.00
2018-09-03T02:27:27.661Z,7.20
2018-09-03T02:29:03.912Z,5.00
2018-09-03T02:30:44.531Z,9.00
2018-09-03T02:32:21.637Z,7.40
2018-09-03T02:33:57.056Z,8.00
2018-09-03T02:35:33.303Z,8.40
2018-09-03T02:37:08.474Z,6.00
2018-09-03T02:38:44.153Z,7.60
2018-09-03T02:40:19.621Z,6.80
2018-09-03T02:41:55.223Z,6.00
2018-09-03T02:43:30.563Z,6.80
2018-09-03T02:45:12.087Z,8.20
2018-09-03T02:46:47.490Z,8.00
2018-09-03T02:48:24.178Z,8.00
2018-09-03T02:50:01.035Z,8.00
2018-09-03T02:51:36.394Z,8.00
2018-09-03T02:53:12.256Z,8.60
2018-09-03T02:54:47.303Z,6.80
2018-09-03T02:56:22.730Z,9.00
2018-09-03T02:57:57.917Z,5.80
2018-09-03T02:59:33.767Z,8.80
2018-09-03T03:01:09.637Z,7.40
2018-09-03T03:02:44.933Z,6.80
2018-09-03T03:04:21.198Z,8.00
2018-09-03T03:05:57.072Z,5.00
2018-09-03T03:07:35.090Z,8.80
2018-09-03T03:09:10.850Z,8.00
2018-09-03T03:11:02.116Z,7.40
2018-09-03T03:12:37.878Z,7.60
2018-09-03T03:14:14.750Z,8.60
2018-09-03T03:18:04.527Z,7.20
2018-09-03T03:19:42.268Z,7.00
2018-09-03T03:21:18.147Z,5.80
2018-09-03T07:04:31.746Z,10.00
2018-09-03T07:06:08.517Z,11.40
2018-09-03T07:07:44.222Z,14.40
2018-09-03T07:09:19.630Z,14.00
2018-09-03T07:10:56.992Z,10.40
2018-09-03T07:12:34.540Z,9.20
2018-09-03T07:14:15.363Z,10.20
2018-09-03T07:15:51.410Z,12.00
2018-09-03T07:17:29.590Z,7.80
2018-09-03T07:19:05.197Z,13.20
2018-09-03T07:20:42.962Z,12.20
2018-09-03T07:22:19.234Z,13.40
2018-09-03T07:23:58.642Z,12.20
2018-09-03T07:25:34.729Z,11.60
2018-09-03T07:27:12.428Z,11.80
2018-09-03T07:28:49.361Z,12.60
2018-09-03T07:30:26.865Z,11.20
2018-09-03T07:32:02.302Z,10.60
2018-09-03T07:33:39.854Z,15.00
2018-09-03T07:35:15.482Z,12.40
2018-09-03T07:36:54.250Z,12.00
2018-09-03T07:38:29.709Z,13.80
2018-09-03T07:40:08.985Z,12.00
2018-09-03T07:41:46.833Z,10.20
2018-09-03T07:43:25.742Z,13.20
2018-09-03T07:45:02.691Z,12.60
2018-09-03T07:46:40.208Z,12.60
2018-09-03T07:48:18.248Z,12.60
2018-09-03T07:49:58.184Z,11.60
2018-09-03T07:51:34.274Z,10.00
2018-09-03T07:53:09.735Z,13.20
2018-09-03T07:54:46.817Z,12.80
2018-09-03T07:56:23.358Z,10.00
2018-09-03T07:57:58.655Z,10.00
2018-09-03T07:59:35.259Z,11.20
2018-09-03T08:01:13.378Z,11.20
2018-09-03T08:02:48.596Z,7.60
2018-09-03T08:04:25.207Z,12.20
2018-09-03T08:06:00.649Z,7.20
2018-09-03T08:07:37.010Z,11.20
2018-09-03T08:09:15.003Z,11.40
2018-09-03T08:10:50.347Z,10.80
2018-09-03T08:12:26.993Z,11.00
2018-09-03T08:14:04.599Z,13.00
2018-09-03T08:15:45.046Z,6.20
2018-09-03T08:17:27.056Z,10.00
2018-09-03T08:19:03.492Z,13.00
2018-09-03T08:20:39.327Z,13.80
2018-09-03T08:22:16.553Z,12.20
2018-09-03T08:23:53.258Z,11.00
2018-09-03T08:25:29.865Z,6.00
2018-09-03T08:27:07.398Z,11.00
2018-09-03T08:28:44.765Z,11.80
2018-09-03T08:30:19.993Z,11.80
2018-09-03T08:31:59.252Z,10.00
2018-09-03T08:33:35.280Z,12.80
2018-09-03T08:35:12.335Z,11.00
2018-09-03T08:36:48.415Z,11.80
2018-09-03T08:38:25.425Z,11.80
2018-09-03T08:40:04.343Z,12.80
2018-09-03T08:41:40.314Z,10.60
2018-09-03T08:43:16.677Z,13.20
2018-09-03T08:44:54.573Z,12.00
2018-09-03T08:46:30.603Z,12.20
2018-09-03T08:48:07.276Z,14.00
2018-09-03T08:49:44.076Z,11.00
2018-09-03T08:51:19.888Z,11.60
2018-09-03T08:52:58.683Z,11.80
2018-09-03T08:54:35.331Z,10.40
2018-09-03T08:56:12.873Z,11.00
2018-09-03T08:57:49.792Z,9.80
2018-09-03T08:59:30.554Z,11.60
2018-09-03T09:01:06.691Z,11.20
2018-09-03T09:02:43.350Z,12.60
2018-09-03T09:04:20.597Z,11.80
2018-09-03T09:05:56.369Z,13.20
2018-09-03T09:07:34.266Z,12.40
2018-09-03T09:09:09.961Z,9.40
2018-09-03T09:10:45.940Z,13.20
2018-09-03T09:12:24.261Z,11.80
2018-09-03T09:14:00.793Z,11.60
2018-09-03T09:17:19.472Z,12.60
2018-09-03T09:18:56.204Z,4.80
2018-09-03T09:20:32.239Z,11.40
2018-09-03T09:22:11.566Z,12.60
2018-09-03T09:23:51.816Z,13.60
2018-09-03T09:25:28.952Z,13.40
2018-09-03T09:27:08.581Z,12.00
2018-09-03T09:28:45.551Z,12.40
2018-09-03T09:30:20.603Z,22.20
2018-09-03T09:31:57.066Z,24.80
2018-09-03T09:33:33.305Z,24.00
2018-09-03T09:35:09.522Z,20.20
2018-09-03T09:36:48.560Z,13.40
2018-09-03T09:38:24.473Z,14.60
2018-09-03T09:40:00.467Z,15.20
2018-09-03T09:41:37.130Z,15.60
2018-09-03T09:43:13.473Z,12.40
2018-09-03T09:44:51.827Z,12.40
2018-09-03T09:46:27.063Z,13.00
2018-09-03T09:48:02.726Z,12.60
2018-09-03T09:49:38.133Z,12.80
2018-09-03T09:51:17.004Z,14.80
2018-09-03T09:52:55.257Z,13.00
2018-09-03T09:54:30.575Z,13.80
2018-09-03T09:56:06.079Z,14.00
2018-09-03T09:57:42.829Z,13.80
2018-09-03T09:59:18.477Z,11.20
2018-09-03T10:00:58.610Z,15.00
2018-09-03T10:02:35.103Z,12.00
2018-09-03T10:04:12.021Z,12.20
2018-09-03T10:05:49.632Z,14.60
2018-09-03T10:07:26.805Z,13.40
2018-09-03T10:09:03.191Z,16.00
2018-09-03T10:10:41.728Z,14.40
2018-09-03T10:12:21.490Z,14.80
2018-09-03T10:13:57.934Z,15.20
2018-09-03T10:15:35.251Z,5.00
2018-09-03T10:17:11.816Z,12.60
2018-09-03T10:18:48.454Z,12.20
2018-09-03T10:20:26.310Z,12.80
2018-09-03T10:22:04.638Z,13.60
2018-09-03T10:23:40.138Z,14.00
2018-09-03T10:25:16.649Z,16.80
2018-09-03T10:26:52.943Z,10.20
2018-09-03T10:28:29.759Z,11.40
2018-09-03T10:30:13.104Z,15.80
2018-09-03T10:31:49.166Z,17.80
2018-09-03T10:33:29.803Z,13.60
2018-09-03T10:35:07.782Z,13.40
2018-09-03T10:36:43.592Z,14.20
2018-09-03T10:38:22.321Z,12.80
2018-09-03T10:39:59.991Z,14.80
2018-09-03T10:41:36.184Z,11.80
2018-09-03T10:43:12.950Z,14.20
2018-09-03T10:44:52.816Z,13.80
2018-09-03T10:46:31.154Z,17.20
2018-09-03T10:48:07.119Z,13.00
2018-09-03T10:49:57.632Z,14.20
2018-09-03T10:51:35.623Z,14.80
2018-09-03T10:53:12.381Z,15.00
2018-09-03T10:54:51.254Z,12.40
2018-09-03T10:56:29.230Z,12.00
2018-09-03T10:58:08.700Z,13.00
2018-09-03T10:59:45.495Z,17.00
2018-09-03T11:01:23.992Z,17.20
2018-09-03T11:02:59.351Z,12.60
2018-09-03T11:04:37.634Z,14.40
2018-09-03T11:06:17.716Z,14.40
2018-09-03T11:07:55.682Z,15.60
2018-09-03T11:09:36.648Z,14.80
2018-09-03T11:11:14.764Z,11.00
2018-09-03T11:12:57.771Z,14.20
2018-09-03T11:14:35.589Z,12.60
2018-09-03T11:16:13.472Z,14.20
2018-09-03T11:17:51.262Z,16.00
2018-09-03T11:19:31.726Z,16.20
2018-09-03T11:21:09.216Z,15.40
2018-09-03T11:22:45.622Z,12.60
2018-09-03T11:24:25.819Z,16.40
2018-09-03T11:26:02.157Z,17.20
2018-09-03T11:27:38.484Z,15.40
2018-09-03T11:29:14.173Z,17.00
2018-09-03T11:30:54.447Z,17.80
2018-09-03T11:32:30.160Z,15.00
2018-09-03T11:34:06.826Z,16.80
2018-09-03T11:35:42.870Z,16.20
2018-09-03T11:37:18.380Z,15.60
2018-09-03T11:38:57.661Z,15.00
2018-09-03T11:40:34.789Z,13.60
2018-09-03T11:42:10.327Z,14.80
2018-09-03T11:43:47.245Z,11.60
2018-09-03T11:45:24.697Z,15.00
2018-09-03T11:47:02.625Z,14.80
2018-09-03T11:48:38.592Z,10.60
2018-09-03T11:50:16.438Z,15.00
2018-09-03T11:51:51.801Z,13.80
2018-09-03T11:53:27.613Z,15.80
2018-09-03T11:55:03.776Z,16.20
2018-09-03T11:56:39.201Z,19.40
2018-09-03T11:58:24.399Z,16.40
2018-09-03T12:00:03.882Z,16.80
2018-09-03T12:01:41.599Z,17.80
2018-09-03T12:03:19.623Z,12.60
2018-09-03T12:04:57.333Z,13.20
2018-09-03T12:06:35.361Z,14.80
2018-09-03T12:08:12.782Z,16.00
2018-09-03T12:09:51.269Z,15.40
2018-09-03T12:11:28.784Z,17.60
2018-09-03T12:13:08.322Z,14.20
2018-09-03T12:14:47.807Z,14.60
2018-09-03T12:16:28.429Z,13.20
2018-09-03T12:18:03.741Z,13.60
2018-09-03T12:19:39.592Z,14.20
2018-09-03T12:21:16.207Z,11.80
2018-09-03T12:22:53.971Z,13.40
2018-09-03T12:24:32.847Z,14.60
2018-09-03T12:26:11.056Z,14.20
2018-09-03T12:27:50.095Z,15.80
2018-09-03T12:29:27.177Z,13.60
2018-09-03T12:31:02.911Z,11.60
2018-09-03T12:32:40.320Z,14.40
2018-09-03T12:34:16.774Z,14.00
2018-09-03T12:35:54.628Z,10.00
2018-09-03T12:37:31.963Z,10.60
2018-09-03T12:39:11.514Z,10.60
2018-09-03T12:40:48.507Z,11.00
2018-09-03T12:42:30.048Z,11.60
2018-09-03T12:44:06.613Z,13.00
2018-09-03T12:45:49.524Z,7.00
2018-09-03T12:47:27.179Z,9.80
2018-09-03T12:49:02.647Z,11.40
2018-09-03T12:50:39.321Z,13.60
2018-09-03T12:52:15.939Z,13.60
2018-09-03T12:53:55.470Z,12.80
2018-09-03T12:55:34.525Z,11.00
2018-09-03T12:57:11.343Z,12.20
2018-09-03T12:58:48.447Z,14.00
2018-09-03T13:00:27.641Z,13.80
2018-09-03T13:02:04.012Z,12.40
2018-09-03T13:03:40.817Z,13.00
2018-09-03T13:05:18.326Z,13.80
2018-09-03T13:06:56.597Z,13.40
2018-09-03T13:08:33.492Z,12.60
2018-09-03T13:10:11.296Z,14.40
2018-09-03T13:11:52.392Z,14.00
2018-09-03T13:13:32.775Z,14.40
2018-09-03T13:15:12.839Z,13.80
2018-09-03T13:16:49.411Z,15.40
2018-09-03T13:18:27.663Z,15.00
2018-09-03T13:20:05.299Z,14.00
2018-09-03T13:21:43.674Z,15.00
2018-09-03T13:23:22.597Z,14.00
2018-09-03T13:25:02.859Z,13.00
2018-09-03T13:26:44.154Z,13.40
2018-09-03T13:28:40.247Z,14.00
2018-09-03T13:30:22.160Z,15.20
2018-09-03T13:32:00.774Z,14.00
2018-09-03T13:33:38.283Z,14.00
2018-09-03T13:35:15.274Z,14.20
2018-09-03T13:38:36.293Z,17.00
2018-09-03T13:40:14.556Z,16.00
2018-09-03T13:41:53.324Z,13.40
2018-09-03T13:43:32.636Z,17.00
2018-09-03T13:46:10.988Z,16.60
2018-09-03T13:47:50.126Z,15.00
2018-09-03T13:49:28.581Z,15.60
2018-09-03T13:51:05.586Z,13.40
2018-09-03T13:52:41.558Z,16.00
2018-09-03T13:54:18.037Z,14.00
2018-09-03T13:55:59.023Z,14.40
2018-09-03T13:57:35.036Z,17.80
2018-09-03T13:59:10.700Z,9.40
2018-09-03T14:00:51.274Z,15.20
2018-09-03T14:02:29.825Z,15.20
2018-09-03T14:04:09.532Z,15.60
2018-09-03T14:05:47.557Z,14.60
2018-09-03T14:07:24.907Z,16.20
2018-09-03T14:09:02.925Z,15.40
2018-09-03T14:10:40.911Z,14.20
2018-09-03T14:12:19.533Z,18.20
2018-09-03T14:13:55.617Z,19.20
2018-09-03T14:15:32.441Z,16.60
2018-09-03T14:18:58.116Z,16.00
2018-09-03T14:20:35.025Z,13.60
2018-09-03T14:22:11.602Z,15.20
2018-09-03T14:23:51.534Z,16.00
2018-09-03T14:25:29.794Z,13.20
2018-09-03T14:27:05.532Z,17.20
2018-09-03T14:28:46.060Z,16.00
2018-09-03T14:30:25.204Z,19.40
2018-09-03T14:32:05.220Z,15.80
2018-09-03T14:33:44.567Z,15.20
2018-09-03T14:35:23.437Z,15.60
2018-09-03T14:37:00.805Z,17.60
2018-09-03T14:38:44.441Z,15.40
2018-09-03T14:40:22.676Z,15.40
2018-09-03T14:42:06.394Z,20.20
2018-09-03T14:43:45.205Z,16.20
2018-09-03T14:45:23.148Z,16.00
2018-09-03T14:47:06.910Z,16.00
2018-09-03T14:48:45.788Z,16.60
2018-09-03T14:50:30.206Z,17.60
2018-09-03T14:52:11.782Z,18.60
2018-09-03T14:53:50.376Z,17.80
2018-09-03T14:55:28.202Z,18.20
2018-09-03T14:57:07.292Z,17.20
2018-09-03T14:58:49.217Z,16.00
2018-09-03T15:00:26.686Z,15.60
2018-09-03T15:02:04.648Z,18.60
2018-09-03T15:03:46.742Z,18.00
2018-09-03T15:05:27.698Z,19.40
2018-09-03T15:08:49.425Z,19.40
2018-09-03T15:10:26.128Z,15.60
2018-09-03T15:12:08.092Z,17.60
2018-09-03T15:13:45.590Z,17.40
2018-09-03T15:15:22.797Z,8.80
2018-09-03T15:17:00.450Z,16.60
2018-09-03T15:18:37.103Z,18.00
2018-09-03T15:20:12.901Z,18.60
2018-09-03T15:21:49.534Z,20.00
2018-09-03T15:23:25.646Z,17.80
2018-09-03T15:25:02.259Z,16.00
2018-09-03T15:26:40.842Z,16.40
2018-09-03T15:28:19.567Z,12.60
2018-09-03T15:29:58.426Z,18.00
2018-09-03T15:31:42.303Z,18.80
2018-09-03T15:33:22.043Z,19.60
2018-09-03T15:34:59.251Z,16.00
2018-09-03T15:36:36.450Z,18.80
2018-09-03T15:38:13.606Z,16.80
2018-09-03T15:39:59.906Z,19.40
2018-09-03T15:41:37.842Z,18.60
2018-09-03T15:43:15.013Z,16.60
2018-09-03T15:44:53.228Z,18.40
2018-09-03T15:46:31.991Z,19.80
2018-09-03T15:48:08.577Z,12.00
2018-09-03T15:49:52.239Z,14.80
2018-09-03T15:51:29.477Z,18.60
2018-09-03T15:53:06.034Z,20.00
2018-09-03T15:54:43.333Z,18.00
2018-09-03T15:56:19.694Z,17.80
2018-09-03T15:58:01.345Z,19.00
2018-09-03T15:59:37.695Z,19.40
2018-09-03T16:01:16.900Z,18.20
2018-09-03T16:02:55.068Z,20.20
2018-09-03T16:04:33.421Z,20.20
2018-09-03T16:06:12.607Z,20.20
2018-09-03T16:07:58.684Z,20.80
2018-09-03T16:09:41.688Z,12.20
2018-09-03T16:11:22.294Z,20.60
2018-09-03T16:13:01.302Z,19.40
2018-09-03T16:14:39.699Z,15.00
2018-09-03T16:16:15.630Z,20.60
2018-09-03T16:17:52.100Z,18.80
2018-09-03T16:19:29.842Z,17.00
2018-09-03T16:21:09.661Z,17.20
2018-09-03T16:22:49.585Z,20.20
2018-09-03T16:24:31.386Z,15.60
2018-09-03T16:26:09.734Z,17.80
2018-09-03T16:27:55.845Z,18.40
2018-09-03T16:29:34.943Z,18.40
2018-09-03T16:31:16.967Z,18.20
2018-09-03T16:32:55.692Z,14.20
2018-09-03T16:34:38.735Z,17.60
2018-09-03T16:36:17.908Z,18.60
2018-09-03T16:38:10.328Z,16.40
2018-09-03T16:39:50.038Z,19.20
2018-09-03T16:41:28.549Z,19.00
2018-09-03T16:43:07.140Z,17.20
2018-09-03T16:44:47.903Z,20.20
2018-09-03T16:46:47.704Z,17.00
2018-09-03T16:48:28.299Z,20.00
2018-09-03T16:50:22.104Z,18.20
2018-09-03T16:52:10.520Z,17.20
2018-09-03T16:53:54.229Z,19.80
2018-09-03T16:55:40.418Z,17.20
2018-09-03T16:57:21.917Z,21.00
2018-09-03T16:59:00.482Z,19.40
2018-09-03T17:00:39.880Z,13.20
2018-09-03T17:02:22.678Z,20.20
2018-09-03T17:03:59.515Z,17.00
2018-09-03T17:05:41.684Z,22.60
2018-09-03T17:07:19.703Z,21.00
2018-09-03T17:09:03.542Z,24.20
2018-09-03T17:10:45.057Z,22.80
2018-09-03T17:12:27.425Z,20.80
2018-09-03T17:14:04.667Z,19.80
2018-09-03T17:15:56.552Z,17.80
2018-09-03T17:19:18.321Z,21.00
2018-09-03T17:21:04.776Z,22.60
2018-09-03T17:22:43.314Z,23.60
2018-09-03T17:24:20.188Z,21.20
2018-09-03T17:27:37.580Z,23.00
2018-09-03T17:29:18.262Z,24.00
2018-09-03T17:30:58.513Z,22.40
2018-09-03T17:32:35.542Z,25.00
2018-09-03T17:34:12.285Z,27.20
2018-09-03T17:35:48.287Z,23.00
2018-09-03T17:37:28.926Z,23.60
2018-09-03T17:39:08.486Z,25.00
2018-09-03T17:40:45.307Z,13.00
2018-09-03T17:42:20.723Z,22.20
2018-09-03T17:46:36.736Z,22.20
2018-09-03T17:48:17.275Z,22.20
2018-09-03T17:49:55.748Z,25.20
2018-09-03T17:51:33.480Z,23.20
2018-09-03T17:53:11.872Z,25.20
2018-09-03T17:54:49.656Z,24.40
2018-09-03T17:56:26.766Z,23.60
2018-09-03T17:58:12.307Z,24.80
2018-09-03T17:59:51.800Z,25.80
2018-09-03T18:01:27.653Z,25.20
2018-09-03T18:03:11.104Z,25.00
2018-09-03T18:04:51.681Z,25.00
2018-09-03T18:06:29.682Z,25.00
2018-09-03T18:08:08.414Z,25.40
2018-09-03T18:09:50.165Z,22.20
2018-09-03T18:11:32.132Z,25.20
2018-09-03T18:13:11.708Z,22.80
2018-09-03T18:14:48.246Z,25.40
2018-09-03T18:16:24.860Z,24.60
2018-09-03T18:18:02.726Z,28.00
2018-09-03T18:19:40.450Z,25.40
2018-09-03T18:21:17.756Z,24.80
2018-09-03T18:22:55.119Z,26.20
2018-09-03T18:24:31.736Z,25.40
2018-09-03T18:26:10.725Z,25.20
2018-09-03T18:27:50.181Z,25.40
2018-09-03T18:29:25.640Z,25.40
2018-09-03T18:31:02.809Z,28.00
2018-09-03T18:32:41.158Z,26.80
2018-09-03T18:34:21.415Z,28.80
2018-09-03T18:35:58.869Z,25.20
2018-09-03T18:37:40.281Z,29.60
2018-09-03T18:39:16.130Z,26.00
2018-09-03T18:40:52.787Z,25.20
2018-09-03T18:42:28.480Z,28.00
2018-09-03T18:44:04.581Z,26.00
2018-09-03T18:45:40.657Z,25.80
2018-09-03T18:47:17.949Z,27.00
2018-09-03T18:48:54.214Z,25.20
2018-09-03T18:50:31.624Z,25.20
2018-09-03T18:52:09.279Z,26.40
2018-09-03T18:53:45.802Z,26.00
2018-09-03T18:55:23.155Z,27.00
2018-09-03T18:57:01.800Z,23.80
2018-09-03T18:58:38.654Z,27.60
2018-09-03T19:00:19.678Z,25.60
2018-09-03T19:01:56.235Z,27.20
2018-09-03T19:03:33.004Z,28.00
2018-09-03T19:05:12.943Z,26.80
2018-09-03T19:06:48.279Z,24.60
2018-09-03T19:08:27.960Z,21.00
2018-09-03T19:10:04.594Z,26.00
2018-09-03T19:11:40.896Z,25.00
2018-09-03T19:13:23.957Z,25.80
2018-09-03T19:15:01.069Z,26.40
2018-09-03T19:16:39.008Z,25.40
2018-09-03T19:18:20.458Z,25.60
2018-09-03T19:20:02.522Z,26.00
2018-09-03T19:21:39.725Z,26.20
2018-09-03T19:23:23.871Z,25.20
2018-09-03T19:24:59.462Z,28.40
2018-09-03T19:26:39.249Z,25.60
2018-09-03T19:28:21.240Z,25.60
2018-09-03T19:29:58.632Z,28.00
2018-09-03T19:31:39.078Z,25.20
2018-09-03T19:33:17.465Z,28.00
2018-09-03T19:35:14.814Z,28.40
2018-09-03T19:36:53.792Z,26.80
2018-09-03T19:38:30.408Z,26.40
2018-09-03T19:40:09.494Z,24.40
2018-09-03T19:41:46.250Z,27.40
2018-09-03T19:43:28.001Z,25.40
2018-09-03T19:45:08.323Z,26.80
2018-09-03T19:46:46.148Z,28.60
2018-09-03T19:48:26.888Z,28.40
2018-09-03T19:50:03.911Z,25.80
2018-09-03T19:51:39.966Z,25.20
2018-09-03T19:53:16.956Z,25.60
2018-09-03T19:54:57.620Z,30.20
2018-09-03T19:56:38.889Z,27.80
2018-09-03T19:58:16.794Z,26.00
2018-09-03T19:59:56.526Z,23.80
2018-09-03T20:01:33.734Z,28.40
2018-09-03T20:03:10.649Z,27.20
2018-09-03T20:04:51.501Z,28.00
2018-09-03T20:06:28.468Z,23.80
2018-09-03T20:08:04.217Z,27.20
2018-09-03T20:09:45.335Z,26.80
2018-09-03T20:11:22.552Z,24.00
2018-09-03T20:13:00.241Z,25.20
2018-09-03T20:14:36.783Z,28.20
2018-09-03T20:16:20.354Z,25.60
2018-09-03T20:17:57.367Z,26.00
2018-09-03T20:19:36.193Z,28.80
2018-09-03T20:21:14.010Z,26.00
2018-09-03T20:22:51.325Z,28.60
2018-09-03T20:24:28.728Z,26.80
2018-09-03T20:26:06.282Z,27.60
2018-09-03T20:27:44.045Z,25.20
2018-09-03T20:29:21.493Z,25.20
2018-09-03T20:30:58.574Z,26.40
2018-09-03T20:32:37.199Z,28.20
2018-09-03T20:34:13.337Z,25.20
2018-09-03T20:35:52.215Z,27.60
2018-09-03T20:37:28.176Z,27.20
2018-09-03T20:39:06.726Z,26.80
2018-09-03T20:40:48.080Z,25.20
2018-09-03T20:42:29.735Z,27.40
2018-09-03T20:44:05.811Z,28.80
2018-09-03T20:45:43.633Z,28.00
2018-09-03T20:47:22.523Z,28.00
2018-09-03T20:49:01.445Z,25.20
2018-09-03T20:50:38.700Z,24.60
2018-09-03T20:52:15.108Z,27.20
2018-09-03T20:53:52.678Z,28.20
2018-09-03T20:55:31.227Z,25.20
2018-09-03T20:57:10.744Z,27.20
2018-09-03T20:58:47.348Z,25.20
2018-09-03T21:00:28.074Z,27.60
2018-09-03T21:02:07.097Z,26.80
2018-09-03T21:03:49.324Z,26.40
2018-09-03T21:05:26.829Z,27.00
2018-09-03T21:07:03.236Z,26.00
2018-09-03T21:08:40.627Z,27.20
2018-09-03T21:10:17.793Z,26.80
2018-09-03T21:11:54.331Z,24.20
2018-09-03T21:13:29.831Z,25.60
2018-09-03T21:15:08.559Z,25.60
2018-09-03T21:16:46.729Z,23.00
2018-09-03T21:18:24.170Z,25.20
2018-09-03T21:19:59.541Z,23.60
2018-09-03T21:21:35.375Z,27.60
2018-09-03T21:23:11.794Z,29.20
2018-09-03T21:24:53.003Z,25.00
2018-09-03T21:26:29.137Z,27.80
2018-09-03T21:28:05.679Z,25.20
2018-09-03T21:29:42.139Z,24.80
2018-09-03T21:31:18.889Z,28.20
2018-09-03T21:32:56.863Z,23.40
2018-09-03T21:34:32.917Z,25.20
2018-09-03T21:36:10.246Z,23.80
2018-09-03T21:37:46.852Z,26.20
2018-09-03T21:39:23.923Z,26.80
2018-09-03T21:41:00.387Z,26.80
2018-09-03T21:42:36.143Z,26.20
2018-09-03T21:44:11.713Z,26.60
2018-09-03T21:45:47.388Z,23.20
2018-09-03T21:47:24.046Z,26.20
2018-09-03T21:48:59.666Z,26.00
2018-09-03T21:50:39.515Z,25.80
2018-09-03T21:52:15.638Z,24.00
2018-09-03T21:53:51.272Z,26.00
2018-09-03T21:55:31.189Z,28.80
2018-09-03T21:57:09.984Z,21.20
2018-09-03T21:58:46.575Z,26.40
2018-09-03T22:00:22.210Z,26.80
2018-09-03T22:02:01.367Z,26.40
2018-09-03T22:03:38.645Z,29.00
2018-09-03T22:05:14.506Z,26.80
2018-09-03T22:06:57.598Z,27.00
2018-09-03T22:08:35.687Z,25.60
2018-09-03T22:10:11.805Z,25.80
2018-09-03T22:11:47.487Z,25.80
2018-09-03T22:13:25.450Z,19.00
2018-09-03T22:15:06.411Z,25.80
2018-09-03T22:16:43.080Z,26.40
2018-09-03T22:18:21.136Z,24.60
2018-09-03T22:19:57.703Z,23.80
2018-09-03T22:21:33.021Z,26.20
2018-09-03T22:23:09.273Z,24.20
2018-09-03T22:24:46.769Z,24.80
2018-09-03T22:26:23.230Z,24.00
2018-09-03T22:27:59.034Z,25.80
2018-09-03T22:29:35.520Z,23.40
2018-09-03T22:31:11.382Z,25.80
2018-09-03T22:32:46.744Z,27.20
2018-09-03T22:34:24.333Z,22.40
2018-09-03T22:35:59.745Z,22.40
2018-09-03T22:37:35.116Z,25.00
2018-09-03T22:39:10.495Z,20.40
2018-09-03T22:40:47.087Z,26.00
2018-09-03T22:42:26.958Z,25.00
2018-09-03T22:44:03.923Z,24.60
2018-09-03T22:45:39.439Z,28.00
2018-09-03T22:47:15.133Z,26.00
2018-09-03T22:48:52.166Z,27.00
2018-09-03T22:50:27.923Z,26.00
2018-09-03T22:52:06.110Z,17.20
2018-09-03T22:53:42.055Z,22.00
2018-09-03T22:55:17.817Z,27.20
2018-09-03T22:56:57.513Z,24.20
2018-09-03T22:58:34.705Z,24.20
2018-09-03T23:00:10.769Z,26.60
2018-09-03T23:01:46.402Z,27.40
2018-09-03T23:03:22.358Z,26.40
2018-09-03T23:04:58.732Z,25.60
2018-09-03T23:06:36.469Z,27.40
2018-09-03T23:08:11.785Z,22.00
2018-09-03T23:09:48.470Z,24.60
2018-09-03T23:11:24.123Z,26.40
2018-09-03T23:13:00.969Z,25.80
2018-09-03T23:14:36.336Z,27.20
2018-09-03T23:16:12.144Z,26.00
2018-09-03T23:17:47.435Z,23.80
2018-09-03T23:19:25.610Z,27.20
2018-09-03T23:21:03.507Z,26.80
2018-09-03T23:22:40.771Z,23.00
2018-09-03T23:24:16.359Z,29.40
2018-09-03T23:25:52.107Z,30.20
2018-09-03T23:27:27.354Z,30.20
2018-09-03T23:29:03.713Z,27.20
2018-09-03T23:30:39.070Z,27.40
2018-09-03T23:32:15.710Z,23.00
2018-09-03T23:33:52.963Z,28.80
2018-09-03T23:35:29.042Z,19.60
2018-09-03T23:37:07.977Z,23.60
2018-09-03T23:38:43.399Z,26.00
2018-09-03T23:40:18.492Z,27.60
2018-09-03T23:41:53.837Z,26.60
2018-09-03T23:43:31.112Z,25.60
2018-09-03T23:45:16.074Z,21.60
2018-09-03T23:46:55.032Z,20.60
2018-09-03T23:48:33.328Z,25.00
2018-09-03T23:50:09.529Z,24.40
2018-09-03T23:51:45.929Z,26.20
2018-09-03T23:53:22.768Z,26.80
2018-09-03T23:55:01.100Z,27.60
2018-09-03T23:56:37.740Z,27.60
2018-09-03T23:58:16.948Z,28.00
2018-09-03T23:59:53.443Z,29.60
